Umm Slal — V7PW3 — position and weather

sailwx.info

Track history (hours):
 
Tides and Currents Weather Stations Pressure Air Temp Water Temp Dewpoint Dewpoint Depression Visibility Wind Speed Wind Dir Waves Ship Positions

Umm Slal

Last reported at 2017-Mar-18 13:27 UTC. Time now 2017-Mar-29 09:19 UTC.
Position N 01°57' E 102°16'.
Warning: this ship's position is 10 days out of date.

Length 345 m; draft 9.3 m.

Type: Ship (hazmat cat A). MMSI: 538003300.

Date/timePositionNaut miles runAvg speedWind from/ knotsBaromVisibWave heightAir tempDewpointWater temp
2017-Mar-18 13:27N 01°57' E 102°16'1415.8
2017-Mar-18 12:33N 01°50' E 102°29'1916.5
2017-Mar-18 11:24N 01°41' E 102°45'4716.6
2017-Mar-18 08:33N 01°14' E 103°24'1312.6
2017-Mar-18 07:33N 01°11' E 103°36'4 3.7
2017-Mar-18 06:33N 01°11' E 103°40'7 6.8
2017-Mar-18 05:34N 01°10' E 103°47'9 9.0
2017-Mar-18 04:33N 01°14' E 103°55'  
2017-Mar-11 12:25N 32°30' E 122°19'1113.2
2017-Mar-11 11:34N 32°31' E 122°06'1313.2
2017-Mar-11 10:33N 32°31' E 121°50'13 0.4
2017-Mar-10 02:07N 32°33' E 121°35'712.7
2017-Mar-10 01:31N 32°32' E 121°43'8512.1
2017-Mar-09 18:26N 32°28' E 123°25'  
Track history (hours):
 
Tides and Currents Weather Stations Pressure Air Temp Water Temp Dewpoint Dewpoint Depression Visibility Wind Speed Wind Dir Waves Ship Positions

Umm Slal

Last reported at 2017-Mar-18 13:27 UTC. Time now 2017-Mar-29 09:19 UTC.
Position N 01°57' E 102°16'.
Warning: this ship's position is 10 days out of date.

Length 345 m; draft 9.3 m.

Type: Ship (hazmat cat A). MMSI: 538003300.

Date/timePositionNaut miles runAvg speedWind from/ knotsBaromVisibWave heightAir tempDewpointWater temp
2017-Mar-18 13:27N 01°57' E 102°16'1415.8
2017-Mar-18 12:33N 01°50' E 102°29'1916.5
2017-Mar-18 11:24N 01°41' E 102°45'4716.6
2017-Mar-18 08:33N 01°14' E 103°24'1312.6
2017-Mar-18 07:33N 01°11' E 103°36'4 3.7
2017-Mar-18 06:33N 01°11' E 103°40'7 6.8
2017-Mar-18 05:34N 01°10' E 103°47'9 9.0
2017-Mar-18 04:33N 01°14' E 103°55'  
2017-Mar-11 12:25N 32°30' E 122°19'1113.2
2017-Mar-11 11:34N 32°31' E 122°06'1313.2
2017-Mar-11 10:33N 32°31' E 121°50'13 0.4
2017-Mar-10 02:07N 32°33' E 121°35'712.7
2017-Mar-10 01:31N 32°32' E 121°43'8512.1
2017-Mar-09 18:26N 32°28' E 123°25'  

Dump ship's entire track history